KDRI/DRI METAR and TAF weather

Enter ICAO airport designator
Station Type Date Time Source
KDRI METAR 2018/01/22 19:15 UTC NOAA

KDRI 221915Z AUTO 30015G23KT 10SM CLR 18/M01 A2999 RMK AO2 T01751015


Station Type Date Time Source
KDRI Decoded METAR 2018/01/22 19:15 UTC NOAA

De Ridder, Beauregard Parish Airport, LA, United States (KDRI) 30-49-54N 093-20-23W
Jan 22, 2018 - 02:15 PM EST / 2018.01.22 1915 UTC
Wind: from the WNW (300 degrees) at 17 MPH (15 KT) gusting to 26 MPH (23 KT):0
Visibility: 10 mile(s):0
Sky conditions: clear
Temperature: 63.5 F (17.5 C)
Dew Point: 29.3 F (-1.5 C)
Relative Humidity: 27%
Pressure (altimeter): 29.99 in. Hg (1015 hPa)
ob: KDRI 221915Z AUTO 30015G23KT 10SM CLR 18/M01 A2999 RMK AO2 T01751015
cycle: 19

Station Type Date Time Source
KDRI TAF UTC NOAA

Error!


Example: see airport list